createdAt,value
2017-09-03T00:01:35.771Z,1014.93
2017-09-03T00:03:37.261Z,1014.95
2017-09-03T00:05:38.748Z,1014.94
2017-09-03T00:07:40.272Z,1014.90
2017-09-03T00:09:41.773Z,1014.89
2017-09-03T00:11:43.355Z,1014.85
2017-09-03T00:13:45.003Z,1014.85
2017-09-03T00:15:46.547Z,1014.84
2017-09-03T00:17:48.060Z,1014.82
2017-09-03T00:19:49.577Z,1014.77
2017-09-03T00:21:51.044Z,1014.77
2017-09-03T00:23:52.707Z,1014.82
2017-09-03T00:25:54.261Z,1014.80
2017-09-03T00:27:55.757Z,1014.79
2017-09-03T00:29:57.475Z,1014.83
2017-09-03T00:31:58.959Z,1014.85
2017-09-03T00:34:00.432Z,1014.84
2017-09-03T00:36:01.946Z,1014.85
2017-09-03T00:38:03.510Z,1014.88
2017-09-03T00:40:06.882Z,1014.86
2017-09-03T00:42:09.847Z,1014.89
2017-09-03T00:44:11.799Z,1014.92
2017-09-03T00:46:13.303Z,1014.93
2017-09-03T00:48:14.798Z,1014.85
2017-09-03T00:50:17.951Z,1014.84
2017-09-03T00:52:19.892Z,1014.77
2017-09-03T00:54:21.371Z,1014.74
2017-09-03T00:56:22.882Z,1014.67
2017-09-03T00:58:24.382Z,1014.63
2017-09-03T01:00:25.890Z,1014.59
2017-09-03T01:02:27.387Z,1014.54
2017-09-03T01:04:28.850Z,1014.51
2017-09-03T01:06:30.354Z,1014.45
2017-09-03T01:08:31.877Z,1014.46
2017-09-03T01:10:33.473Z,1014.45
2017-09-03T01:12:36.745Z,1014.46
2017-09-03T01:14:40.275Z,1014.48
2017-09-03T01:16:41.733Z,1014.50
2017-09-03T01:18:43.312Z,1014.48
2017-09-03T01:20:44.861Z,1014.42
2017-09-03T01:22:46.381Z,1014.43
2017-09-03T01:24:50.265Z,1014.41
2017-09-03T01:26:51.765Z,1014.45
2017-09-03T01:28:53.317Z,1014.39
2017-09-03T01:30:54.897Z,1014.36
2017-09-03T01:32:56.441Z,1014.40
2017-09-03T01:35:00.663Z,1014.41
2017-09-03T01:37:02.183Z,1014.42
2017-09-03T01:39:03.702Z,1014.41
2017-09-03T01:41:05.248Z,1014.39
2017-09-03T01:43:06.730Z,1014.40
2017-09-03T01:45:08.232Z,1014.35
2017-09-03T01:47:09.812Z,1014.35
2017-09-03T01:49:13.814Z,1014.35
2017-09-03T01:51:15.258Z,1014.37
2017-09-03T01:53:16.793Z,1014.36
2017-09-03T01:55:18.323Z,1014.36
2017-09-03T01:57:19.793Z,1014.34
2017-09-03T01:59:23.230Z,1014.35
2017-09-03T02:01:26.526Z,1014.32
2017-09-03T02:03:28.022Z,1014.29
2017-09-03T02:05:29.558Z,1014.31
2017-09-03T02:07:32.390Z,1014.26
2017-09-03T02:09:33.932Z,1014.23
2017-09-03T02:11:35.442Z,1014.19
2017-09-03T02:13:36.935Z,1014.18
2017-09-03T02:15:38.477Z,1014.16
2017-09-03T02:17:40.025Z,1014.18
2017-09-03T02:19:41.625Z,1014.20
2017-09-03T02:21:43.208Z,1014.18
2017-09-03T02:23:44.763Z,1014.15
2017-09-03T02:25:48.197Z,1014.18
2017-09-03T02:27:49.631Z,1014.19
2017-09-03T02:29:51.129Z,1014.15
2017-09-03T02:31:52.623Z,1014.18
2017-09-03T02:33:54.262Z,1014.14
2017-09-03T02:35:57.321Z,1014.11
2017-09-03T02:37:58.859Z,1014.10
2017-09-03T02:40:00.365Z,1014.08
2017-09-03T02:42:01.912Z,1014.07
2017-09-03T02:44:04.949Z,1014.06
2017-09-03T02:46:08.170Z,1014.11
2017-09-03T02:48:12.630Z,1014.08
2017-09-03T02:50:16.059Z,1014.06
2017-09-03T02:52:17.832Z,1014.05
2017-09-03T02:54:19.823Z,1014.01
2017-09-03T02:56:21.382Z,1014.00
2017-09-03T02:58:23.732Z,1014.02
2017-09-03T03:00:25.230Z,1014.00
2017-09-03T03:02:26.694Z,1014.01
2017-09-03T03:04:28.207Z,1014.07
2017-09-03T03:06:32.211Z,1014.00
2017-09-03T03:08:33.583Z,1014.02
2017-09-03T03:10:37.680Z,1013.99
2017-09-03T03:12:39.166Z,1014.01
2017-09-03T03:14:40.741Z,1014.00
2017-09-03T03:16:44.410Z,1013.99
2017-09-03T03:18:45.987Z,1013.97
2017-09-03T03:20:49.597Z,1013.97
2017-09-03T03:22:51.109Z,1013.99
2017-09-03T03:24:52.621Z,1013.96
2017-09-03T03:26:54.159Z,1013.96
2017-09-03T03:28:55.699Z,1013.97
2017-09-03T03:30:57.207Z,1013.96
2017-09-03T03:33:01.216Z,1013.91
2017-09-03T03:35:03.051Z,1013.91
2017-09-03T03:37:04.631Z,1013.85
2017-09-03T03:39:06.146Z,1013.82
2017-09-03T03:41:07.679Z,1013.80
2017-09-03T03:43:11.359Z,1013.74
2017-09-03T03:45:12.954Z,1013.79
2017-09-03T03:47:17.168Z,1013.76
2017-09-03T03:49:19.068Z,1013.76
2017-09-03T03:51:20.999Z,1013.74
2017-09-03T03:53:23.972Z,1013.73
2017-09-03T03:55:25.542Z,1013.75
2017-09-03T03:57:30.066Z,1013.69
2017-09-03T03:59:31.392Z,1013.68
2017-09-03T04:01:32.955Z,1013.71
2017-09-03T04:03:34.577Z,1013.68
2017-09-03T04:05:36.137Z,1013.67
2017-09-03T04:07:40.467Z,1013.66
2017-09-03T04:09:41.832Z,1013.66
2017-09-03T04:11:43.289Z,1013.65
2017-09-03T04:13:44.796Z,1013.67
2017-09-03T04:15:46.335Z,1013.72
2017-09-03T04:17:51.188Z,1013.70
2017-09-03T04:19:52.645Z,1013.70
2017-09-03T04:21:54.241Z,1013.66
2017-09-03T04:23:55.772Z,1013.61
2017-09-03T04:26:00.441Z,1013.68
2017-09-03T04:28:01.847Z,1013.65
2017-09-03T04:30:06.336Z,1013.66
2017-09-03T04:32:07.772Z,1013.69
2017-09-03T04:34:09.310Z,1013.66
2017-09-03T04:36:10.861Z,1013.64
2017-09-03T04:38:12.396Z,1013.67
2017-09-03T04:40:16.882Z,1013.63
2017-09-03T04:42:18.237Z,1013.62
2017-09-03T04:44:19.723Z,1013.58
2017-09-03T04:46:21.255Z,1013.56
2017-09-03T04:48:23.985Z,1013.55
2017-09-03T04:50:27.873Z,1013.59
2017-09-03T04:52:29.391Z,1013.61
2017-09-03T04:54:30.845Z,1013.62
2017-09-03T04:56:32.646Z,1013.62
2017-09-03T04:58:34.231Z,1013.57
2017-09-03T05:00:37.836Z,1013.54
2017-09-03T05:02:39.317Z,1013.57
2017-09-03T05:04:40.757Z,1013.52
2017-09-03T05:06:42.269Z,1013.50
2017-09-03T05:08:43.711Z,1013.56
2017-09-03T05:10:45.194Z,1013.53
2017-09-03T05:12:46.677Z,1013.51
2017-09-03T05:14:48.193Z,1013.52
2017-09-03T05:16:49.666Z,1013.52
2017-09-03T05:18:51.129Z,1013.49
2017-09-03T05:20:52.621Z,1013.48
2017-09-03T05:22:55.708Z,1013.47
2017-09-03T05:24:57.070Z,1013.47
2017-09-03T05:26:58.547Z,1013.49
2017-09-03T05:29:00.012Z,1013.51
2017-09-03T05:31:03.048Z,1013.51
2017-09-03T05:33:04.760Z,1013.49
2017-09-03T05:35:06.240Z,1013.49
2017-09-03T05:37:08.149Z,1013.49
2017-09-03T05:39:09.673Z,1013.51
2017-09-03T05:41:11.154Z,1013.55
2017-09-03T05:43:12.614Z,1013.53
2017-09-03T05:45:15.543Z,1013.56
2017-09-03T05:47:17.025Z,1013.56
2017-09-03T05:49:18.505Z,1013.58
2017-09-03T05:51:19.995Z,1013.62
2017-09-03T05:53:22.788Z,1013.62
2017-09-03T05:55:24.230Z,1013.62
2017-09-03T05:57:25.717Z,1013.58
2017-09-03T05:59:27.208Z,1013.58
2017-09-03T06:01:28.682Z,1013.56
2017-09-03T06:03:32.131Z,1013.56
2017-09-03T06:05:33.732Z,1013.59
2017-09-03T06:07:35.517Z,1013.56
2017-09-03T06:09:37.954Z,1013.55
2017-09-03T06:11:39.410Z,1013.55
2017-09-03T06:13:41.872Z,1013.55
2017-09-03T06:15:43.243Z,1013.49
2017-09-03T06:17:44.745Z,1013.51
2017-09-03T06:19:46.230Z,1013.51
2017-09-03T06:21:48.608Z,1013.52
2017-09-03T06:23:50.001Z,1013.58
2017-09-03T06:25:51.436Z,1013.58
2017-09-03T06:27:52.896Z,1013.55
2017-09-03T06:29:54.503Z,1013.52
2017-09-03T06:31:56.498Z,1013.56
2017-09-03T06:33:58.903Z,1013.55
2017-09-03T06:36:01.062Z,1013.56
2017-09-03T06:38:02.903Z,1013.54
2017-09-03T06:40:04.411Z,1013.48
2017-09-03T06:42:06.165Z,1013.51
2017-09-03T06:44:07.989Z,1013.48
2017-09-03T06:46:09.967Z,1013.50
2017-09-03T06:48:12.513Z,1013.51
2017-09-03T06:50:14.323Z,1013.52
2017-09-03T06:52:16.101Z,1013.52
2017-09-03T06:54:17.566Z,1013.49
2017-09-03T06:56:19.033Z,1013.53
2017-09-03T06:58:20.634Z,1013.49
2017-09-03T07:00:22.095Z,1013.50
2017-09-03T07:02:23.571Z,1013.46
2017-09-03T07:04:25.199Z,1013.52
2017-09-03T07:06:26.684Z,1013.47
2017-09-03T07:08:28.335Z,1013.48
2017-09-03T07:10:29.841Z,1013.47
2017-09-03T07:12:31.324Z,1013.44
2017-09-03T07:14:32.774Z,1013.48
2017-09-03T07:16:34.274Z,1013.49
2017-09-03T07:18:35.911Z,1013.51
2017-09-03T07:20:37.436Z,1013.49
2017-09-03T07:22:38.918Z,1013.55
2017-09-03T07:24:40.376Z,1013.51
2017-09-03T07:26:42.001Z,1013.55
2017-09-03T07:28:43.470Z,1013.55
2017-09-03T07:30:44.920Z,1013.54
2017-09-03T07:32:46.364Z,1013.51
2017-09-03T07:34:47.783Z,1013.51
2017-09-03T07:36:49.205Z,1013.46
2017-09-03T07:38:50.629Z,1013.48
2017-09-03T07:40:52.162Z,1013.44
2017-09-03T07:42:53.657Z,1013.44
2017-09-03T07:44:55.869Z,1013.45
2017-09-03T07:46:57.289Z,1013.44
2017-09-03T07:48:58.714Z,1013.46
2017-09-03T07:51:00.177Z,1013.46
2017-09-03T07:53:01.620Z,1013.40
2017-09-03T07:55:03.045Z,1013.44
2017-09-03T07:57:04.468Z,1013.46
2017-09-03T07:59:05.886Z,1013.50
2017-09-03T08:01:08.584Z,1013.51
2017-09-03T08:03:09.915Z,1013.47
2017-09-03T08:05:11.324Z,1013.45
2017-09-03T08:07:12.814Z,1013.43
2017-09-03T08:09:14.237Z,1013.40
2017-09-03T08:11:15.671Z,1013.37
2017-09-03T08:13:17.089Z,1013.36
2017-09-03T08:15:18.505Z,1013.38
2017-09-03T08:17:19.951Z,1013.35
2017-09-03T08:19:21.378Z,1013.32
2017-09-03T08:21:22.953Z,1013.28
2017-09-03T08:23:24.578Z,1013.29
2017-09-03T08:25:26.962Z,1013.32
2017-09-03T08:27:30.391Z,1013.31
2017-09-03T08:29:33.446Z,1013.24
2017-09-03T08:31:34.955Z,1013.24
2017-09-03T08:33:36.472Z,1013.22
2017-09-03T08:35:38.364Z,1013.27
2017-09-03T08:37:40.161Z,1013.23
2017-09-03T08:39:41.963Z,1013.20
2017-09-03T08:41:43.742Z,1013.18
2017-09-03T08:43:45.626Z,1013.17
2017-09-03T08:46:28.119Z,1013.18
2017-09-03T08:48:29.576Z,1013.15
2017-09-03T08:50:30.976Z,1013.19
2017-09-03T08:52:34.576Z,1013.22
2017-09-03T08:54:36.007Z,1013.17
2017-09-03T08:56:37.611Z,1013.19
2017-09-03T08:58:39.157Z,1013.17
2017-09-03T09:00:40.667Z,1013.14
2017-09-03T09:02:42.172Z,1013.08
2017-09-03T09:04:44.376Z,1013.04
2017-09-03T09:06:46.229Z,1013.04
2017-09-03T09:08:47.739Z,1013.00
2017-09-03T09:10:49.292Z,1012.95
2017-09-03T09:12:50.862Z,1012.98
2017-09-03T09:14:52.417Z,1012.96
2017-09-03T09:16:54.805Z,1012.97
2017-09-03T09:18:56.500Z,1012.92
2017-09-03T09:20:58.027Z,1012.90
2017-09-03T09:22:59.592Z,1012.88
2017-09-03T09:25:01.094Z,1012.90
2017-09-03T09:27:02.746Z,1012.83
2017-09-03T09:29:04.309Z,1012.88
2017-09-03T09:31:05.905Z,1012.87
2017-09-03T09:33:48.335Z,1012.82
2017-09-03T09:35:49.771Z,1012.81
2017-09-03T09:37:51.210Z,1012.83
2017-09-03T09:39:52.657Z,1012.81
2017-09-03T09:41:55.029Z,1012.80
2017-09-03T09:43:56.463Z,1012.78
2017-09-03T09:45:57.899Z,1012.79
2017-09-03T09:48:39.306Z,1012.84
2017-09-03T09:50:40.752Z,1012.82
2017-09-03T09:52:42.268Z,1012.81
2017-09-03T09:54:43.826Z,1012.80
2017-09-03T09:56:45.256Z,1012.81
2017-09-03T09:58:46.684Z,1012.77
2017-09-03T10:00:48.183Z,1012.74
2017-09-03T10:02:49.735Z,1012.71
2017-09-03T10:04:51.508Z,1012.75
2017-09-03T10:06:53.046Z,1012.75
2017-09-03T10:08:54.695Z,1012.67
2017-09-03T10:10:56.259Z,1012.70
2017-09-03T10:12:57.801Z,1012.68
2017-09-03T10:14:59.307Z,1012.68
2017-09-03T10:17:00.925Z,1012.68
2017-09-03T10:19:02.589Z,1012.66
2017-09-03T10:21:04.202Z,1012.70
2017-09-03T10:23:05.761Z,1012.62
2017-09-03T10:25:07.266Z,1012.63
2017-09-03T10:27:08.735Z,1012.65
2017-09-03T10:29:10.356Z,1012.65
2017-09-03T10:31:11.879Z,1012.62
2017-09-03T10:33:13.409Z,1012.55
2017-09-03T10:35:14.974Z,1012.58
2017-09-03T10:37:16.502Z,1012.51
2017-09-03T10:39:18.022Z,1012.49
2017-09-03T10:41:19.544Z,1012.50
2017-09-03T10:43:21.145Z,1012.49
2017-09-03T10:45:22.667Z,1012.51
2017-09-03T10:47:24.329Z,1012.51
2017-09-03T10:49:25.943Z,1012.47
2017-09-03T10:51:27.498Z,1012.47
2017-09-03T10:53:29.061Z,1012.47
2017-09-03T10:55:30.911Z,1012.44
2017-09-03T10:57:32.495Z,1012.39
2017-09-03T10:59:34.094Z,1012.38
2017-09-03T11:01:35.639Z,1012.39
2017-09-03T11:03:37.261Z,1012.34
2017-09-03T11:05:38.821Z,1012.33
2017-09-03T11:08:21.224Z,1012.38
2017-09-03T11:10:22.670Z,1012.31
2017-09-03T11:12:24.113Z,1012.30
2017-09-03T11:14:25.575Z,1012.36
2017-09-03T11:16:27.220Z,1012.35
2017-09-03T11:18:28.627Z,1012.31
2017-09-03T11:20:30.223Z,1012.28
2017-09-03T11:22:31.634Z,1012.23
2017-09-03T11:24:33.067Z,1012.23
2017-09-03T11:26:34.507Z,1012.25
2017-09-03T11:28:35.952Z,1012.24
2017-09-03T11:30:37.388Z,1012.18
2017-09-03T11:32:38.824Z,1012.17
2017-09-03T11:34:40.261Z,1012.16
2017-09-03T11:36:41.698Z,1012.15
2017-09-03T11:38:43.172Z,1012.18
2017-09-03T11:40:44.575Z,1012.18
2017-09-03T11:42:46.045Z,1012.18
2017-09-03T11:44:47.519Z,1012.17
2017-09-03T11:46:48.994Z,1012.16
2017-09-03T11:48:50.492Z,1012.09
2017-09-03T11:50:51.968Z,1012.08
2017-09-03T11:52:53.418Z,1012.03
2017-09-03T11:54:54.883Z,1012.01
2017-09-03T11:56:56.323Z,1011.98
2017-09-03T11:58:57.841Z,1011.99
2017-09-03T12:00:59.300Z,1011.98
2017-09-03T12:03:00.773Z,1012.00
2017-09-03T12:05:02.211Z,1012.00
2017-09-03T12:07:03.643Z,1012.02
2017-09-03T12:09:05.137Z,1011.97
2017-09-03T12:11:47.581Z,1011.99
2017-09-03T12:13:49.079Z,1011.94
2017-09-03T12:15:50.560Z,1011.92
2017-09-03T12:17:52.007Z,1011.91
2017-09-03T12:19:53.439Z,1011.90
2017-09-03T12:21:54.874Z,1011.88
2017-09-03T12:23:56.304Z,1011.85
2017-09-03T12:25:57.733Z,1011.85
2017-09-03T12:27:59.169Z,1011.77
2017-09-03T12:30:00.632Z,1011.79
2017-09-03T12:32:02.193Z,1011.74
2017-09-03T12:34:03.673Z,1011.71
2017-09-03T12:36:05.136Z,1011.64
2017-09-03T12:38:06.599Z,1011.59
2017-09-03T12:40:08.006Z,1011.59
2017-09-03T12:42:09.448Z,1011.64
2017-09-03T12:44:10.888Z,1011.58
2017-09-03T12:46:12.319Z,1011.53
2017-09-03T12:48:13.755Z,1011.49
2017-09-03T12:50:15.196Z,1011.47
2017-09-03T12:52:16.966Z,1011.43
2017-09-03T12:54:18.431Z,1011.38
2017-09-03T12:56:19.917Z,1011.34
2017-09-03T12:58:21.718Z,1011.37
2017-09-03T13:00:23.202Z,1011.34
2017-09-03T13:02:24.689Z,1011.30
2017-09-03T13:04:26.368Z,1011.28
2017-09-03T13:06:27.852Z,1011.27
2017-09-03T13:08:29.297Z,1011.21
2017-09-03T13:10:31.012Z,1011.17
2017-09-03T13:12:32.491Z,1011.15
2017-09-03T13:14:34.002Z,1011.21
2017-09-03T13:16:35.556Z,1011.20
2017-09-03T13:18:37.067Z,1011.17
2017-09-03T13:20:38.560Z,1011.17
2017-09-03T13:22:40.212Z,1011.15
2017-09-03T13:24:41.745Z,1011.08
2017-09-03T13:26:43.238Z,1011.03
2017-09-03T13:28:45.012Z,1011.05
2017-09-03T13:31:27.399Z,1011.08
2017-09-03T13:33:28.844Z,1011.07
2017-09-03T13:35:30.273Z,1011.04
2017-09-03T13:37:31.708Z,1011.04
2017-09-03T13:39:33.164Z,1011.03
2017-09-03T13:41:34.613Z,1011.03
2017-09-03T13:43:36.043Z,1011.06
2017-09-03T13:45:37.545Z,1011.04
2017-09-03T13:47:39.045Z,1011.06
2017-09-03T13:49:40.495Z,1011.03
2017-09-03T13:51:41.989Z,1010.97
2017-09-03T13:53:43.456Z,1010.94
2017-09-03T13:55:45.027Z,1010.90
2017-09-03T13:57:46.477Z,1010.86
2017-09-03T13:59:47.925Z,1010.88
2017-09-03T14:01:49.357Z,1010.89
2017-09-03T14:03:50.788Z,1010.90
2017-09-03T14:05:52.215Z,1010.87
2017-09-03T14:07:53.758Z,1010.83
2017-09-03T14:09:55.275Z,1010.79
2017-09-03T14:11:56.766Z,1010.80
2017-09-03T14:13:58.247Z,1010.78
2017-09-03T14:15:59.664Z,1010.77
2017-09-03T14:18:01.098Z,1010.74
2017-09-03T14:20:02.525Z,1010.77
2017-09-03T14:22:03.959Z,1010.75
2017-09-03T14:24:05.487Z,1010.77
2017-09-03T14:26:07.001Z,1010.69
2017-09-03T14:28:08.641Z,1010.77
2017-09-03T14:30:10.384Z,1010.71
2017-09-03T14:32:11.937Z,1010.67
2017-09-03T14:34:54.367Z,1010.70
2017-09-03T14:36:55.793Z,1010.65
2017-09-03T14:38:58.057Z,1010.63
2017-09-03T14:40:59.489Z,1010.60
2017-09-03T14:43:00.920Z,1010.60
2017-09-03T14:45:03.390Z,1010.62
2017-09-03T14:47:04.949Z,1010.60
2017-09-03T14:49:07.794Z,1010.54
2017-09-03T14:51:09.192Z,1010.58
2017-09-03T14:53:10.621Z,1010.57
2017-09-03T14:55:12.049Z,1010.56
2017-09-03T14:57:13.489Z,1010.55
2017-09-03T14:59:16.324Z,1010.54
2017-09-03T15:01:17.820Z,1010.58
2017-09-03T15:03:19.282Z,1010.58
2017-09-03T15:05:20.744Z,1010.57
2017-09-03T15:07:23.642Z,1010.56
2017-09-03T15:09:25.030Z,1010.54
2017-09-03T15:11:26.542Z,1010.52
2017-09-03T15:13:27.963Z,1010.55
2017-09-03T15:15:29.395Z,1010.53
2017-09-03T15:17:30.825Z,1010.54
2017-09-03T15:19:32.269Z,1010.51
2017-09-03T15:21:34.992Z,1010.47
2017-09-03T15:23:36.467Z,1010.45
2017-09-03T15:25:37.901Z,1010.45
2017-09-03T15:27:39.378Z,1010.42
2017-09-03T15:29:40.846Z,1010.42
2017-09-03T15:31:42.350Z,1010.43
2017-09-03T15:33:43.917Z,1010.38
2017-09-03T15:35:45.580Z,1010.34
2017-09-03T15:37:48.232Z,1010.32
2017-09-03T15:39:49.873Z,1010.32
2017-09-03T15:41:52.679Z,1010.31
2017-09-03T15:44:37.378Z,1010.28
2017-09-03T15:46:39.219Z,1010.32
2017-09-03T15:48:40.846Z,1010.28
2017-09-03T15:50:42.288Z,1010.26
2017-09-03T15:53:24.832Z,1010.25
2017-09-03T15:55:26.297Z,1010.19
2017-09-03T15:57:27.761Z,1010.20
2017-09-03T15:59:29.410Z,1010.13
2017-09-03T16:01:31.162Z,1010.11
2017-09-03T16:03:32.571Z,1010.14
2017-09-03T16:05:34.012Z,1010.12
2017-09-03T16:07:35.446Z,1010.10
2017-09-03T16:10:18.030Z,1010.14
2017-09-03T16:12:19.470Z,1010.08
2017-09-03T16:14:21.633Z,1010.08
2017-09-03T16:16:23.225Z,1010.08
2017-09-03T16:18:24.719Z,1010.13
2017-09-03T16:20:26.146Z,1010.12
2017-09-03T16:22:27.586Z,1010.09
2017-09-03T16:24:29.008Z,1010.11
2017-09-03T16:26:30.436Z,1010.14
2017-09-03T16:28:31.870Z,1010.13
2017-09-03T16:30:33.299Z,1010.15
2017-09-03T16:32:34.728Z,1010.12
2017-09-03T16:34:36.156Z,1010.11
2017-09-03T16:36:37.584Z,1010.10
2017-09-03T16:38:39.117Z,1010.10
2017-09-03T16:40:40.713Z,1010.05
2017-09-03T16:42:42.181Z,1009.99
2017-09-03T16:44:43.610Z,1010.06
2017-09-03T16:46:45.035Z,1010.04
2017-09-03T16:48:46.470Z,1010.03
2017-09-03T16:50:47.898Z,1010.00
2017-09-03T16:52:49.379Z,1010.02
2017-09-03T16:54:50.795Z,1010.00
2017-09-03T16:56:52.222Z,1010.00
2017-09-03T16:58:53.730Z,1010.01
2017-09-03T17:00:55.487Z,1009.99
2017-09-03T17:02:57.376Z,1010.01
2017-09-03T17:04:58.826Z,1009.98
2017-09-03T17:07:00.330Z,1009.98
2017-09-03T17:09:01.961Z,1009.97
2017-09-03T17:11:03.406Z,1009.99
2017-09-03T17:13:05.278Z,1009.98
2017-09-03T17:15:07.104Z,1010.05
2017-09-03T17:17:08.521Z,1010.01
2017-09-03T17:19:09.956Z,1010.01
2017-09-03T17:21:11.485Z,1010.01
2017-09-03T17:23:13.177Z,1010.02
2017-09-03T17:25:14.608Z,1010.03
2017-09-03T17:27:16.054Z,1010.06
2017-09-03T17:29:17.499Z,1010.09
2017-09-03T17:31:19.081Z,1010.05
2017-09-03T17:33:20.533Z,1010.06
2017-09-03T17:35:22.025Z,1010.09
2017-09-03T17:37:23.487Z,1010.09
2017-09-03T17:39:25.343Z,1010.11
2017-09-03T17:41:26.858Z,1010.13
2017-09-03T17:43:28.290Z,1010.13
2017-09-03T17:45:29.718Z,1010.17
2017-09-03T17:47:31.146Z,1010.20
2017-09-03T17:49:32.714Z,1010.13
2017-09-03T17:51:34.344Z,1010.19
2017-09-03T17:53:36.303Z,1010.20
2017-09-03T17:55:37.702Z,1010.19
2017-09-03T17:57:39.123Z,1010.19
2017-09-03T17:59:40.971Z,1010.19
2017-09-03T18:01:42.359Z,1010.20
2017-09-03T18:03:43.786Z,1010.21
2017-09-03T18:05:45.213Z,1010.23
2017-09-03T18:07:46.634Z,1010.22
2017-09-03T18:09:48.130Z,1010.22
2017-09-03T18:11:49.551Z,1010.22
2017-09-03T18:13:50.989Z,1010.16
2017-09-03T18:15:52.410Z,1010.15
2017-09-03T18:17:53.835Z,1010.22
2017-09-03T18:19:55.279Z,1010.23
2017-09-03T18:21:56.712Z,1010.21
2017-09-03T18:23:58.249Z,1010.25
2017-09-03T18:25:59.928Z,1010.28
2017-09-03T18:28:01.477Z,1010.25
2017-09-03T18:30:02.913Z,1010.29
2017-09-03T18:32:04.492Z,1010.30
2017-09-03T18:34:06.035Z,1010.26
2017-09-03T18:36:07.491Z,1010.32
2017-09-03T18:38:09.074Z,1010.32
2017-09-03T18:40:10.729Z,1010.37
2017-09-03T18:42:12.281Z,1010.31
2017-09-03T18:44:13.777Z,1010.36
2017-09-03T18:46:15.341Z,1010.36
2017-09-03T18:48:16.929Z,1010.36
2017-09-03T18:50:18.732Z,1010.37
2017-09-03T18:52:20.459Z,1010.36
2017-09-03T18:54:22.082Z,1010.40
2017-09-03T18:56:23.942Z,1010.33
2017-09-03T18:58:25.401Z,1010.40
2017-09-03T19:00:26.852Z,1010.41
2017-09-03T19:02:28.405Z,1010.41
2017-09-03T19:04:29.894Z,1010.41
2017-09-03T19:06:31.352Z,1010.43
2017-09-03T19:08:32.848Z,1010.40
2017-09-03T19:10:34.330Z,1010.45
2017-09-03T19:12:35.770Z,1010.47
2017-09-03T19:14:37.201Z,1010.49
2017-09-03T19:16:38.621Z,1010.48
2017-09-03T19:18:40.109Z,1010.50
2017-09-03T19:20:41.538Z,1010.51
2017-09-03T19:22:42.970Z,1010.54
2017-09-03T19:24:44.387Z,1010.57
2017-09-03T19:26:45.818Z,1010.59
2017-09-03T19:28:47.241Z,1010.58
2017-09-03T19:30:48.859Z,1010.60
2017-09-03T19:32:50.277Z,1010.62
2017-09-03T19:34:51.704Z,1010.59
2017-09-03T19:36:53.276Z,1010.57
2017-09-03T19:38:55.552Z,1010.59
2017-09-03T19:40:57.294Z,1010.59
2017-09-03T19:42:58.991Z,1010.56
2017-09-03T19:45:00.518Z,1010.57
2017-09-03T19:47:02.133Z,1010.58
2017-09-03T19:49:03.610Z,1010.59
2017-09-03T19:51:05.320Z,1010.58
2017-09-03T19:53:06.872Z,1010.62
2017-09-03T19:55:08.376Z,1010.61
2017-09-03T19:57:09.946Z,1010.61
2017-09-03T19:59:11.464Z,1010.63
2017-09-03T20:01:12.921Z,1010.63
2017-09-03T20:03:14.812Z,1010.63
2017-09-03T20:05:16.311Z,1010.59
2017-09-03T20:07:18.178Z,1010.63
2017-09-03T20:09:20.300Z,1010.63
2017-09-03T20:11:21.736Z,1010.63
2017-09-03T20:13:23.253Z,1010.62
2017-09-03T20:15:24.737Z,1010.63
2017-09-03T20:17:26.326Z,1010.62
2017-09-03T20:19:28.095Z,1010.62
2017-09-03T20:21:29.585Z,1010.59
2017-09-03T20:23:31.059Z,1010.58
2017-09-03T20:25:32.533Z,1010.58
2017-09-03T20:27:34.005Z,1010.59
2017-09-03T20:29:35.503Z,1010.55
2017-09-03T20:31:37.032Z,1010.60
2017-09-03T20:33:38.559Z,1010.56
2017-09-03T20:35:40.075Z,1010.59
2017-09-03T20:37:41.524Z,1010.60
2017-09-03T20:39:43.042Z,1010.65
2017-09-03T20:41:44.540Z,1010.63
2017-09-03T20:43:45.989Z,1010.70
2017-09-03T20:45:47.425Z,1010.68
2017-09-03T20:47:48.889Z,1010.68
2017-09-03T20:49:50.443Z,1010.67
2017-09-03T20:51:51.919Z,1010.67
2017-09-03T20:53:53.388Z,1010.68
2017-09-03T20:55:54.899Z,1010.67
2017-09-03T20:57:56.362Z,1010.67
2017-09-03T20:59:57.844Z,1010.71
2017-09-03T21:01:59.396Z,1010.68
2017-09-03T21:04:00.985Z,1010.71
2017-09-03T21:06:02.763Z,1010.66
2017-09-03T21:08:04.923Z,1010.69
2017-09-03T21:10:06.373Z,1010.70
2017-09-03T21:12:07.840Z,1010.65
2017-09-03T21:14:09.472Z,1010.65
2017-09-03T21:16:10.992Z,1010.65
2017-09-03T21:18:12.497Z,1010.63
2017-09-03T21:20:14.092Z,1010.68
2017-09-03T21:22:15.674Z,1010.66
2017-09-03T21:24:17.185Z,1010.64
2017-09-03T21:26:18.695Z,1010.64
2017-09-03T21:28:20.251Z,1010.59
2017-09-03T21:30:21.742Z,1010.60
2017-09-03T21:32:23.216Z,1010.61
2017-09-03T21:34:24.744Z,1010.66
2017-09-03T21:36:26.585Z,1010.65
2017-09-03T21:38:28.796Z,1010.70
2017-09-03T21:40:30.554Z,1010.74
2017-09-03T21:42:32.496Z,1010.76
2017-09-03T21:44:33.991Z,1010.76
2017-09-03T21:46:35.592Z,1010.72
2017-09-03T21:48:37.178Z,1010.74
2017-09-03T21:50:38.919Z,1010.80
2017-09-03T21:52:40.895Z,1010.80
2017-09-03T21:54:42.392Z,1010.76
2017-09-03T21:56:43.884Z,1010.78
2017-09-03T21:58:45.323Z,1010.77
2017-09-03T22:01:28.314Z,1010.81
2017-09-03T22:03:29.719Z,1010.75
2017-09-03T22:05:31.133Z,1010.78
2017-09-03T22:07:32.550Z,1010.76
2017-09-03T22:09:34.223Z,1010.75
2017-09-03T22:11:36.046Z,1010.75
2017-09-03T22:13:37.986Z,1010.72
2017-09-03T22:15:39.439Z,1010.73
2017-09-03T22:17:41.090Z,1010.74
2017-09-03T22:19:42.606Z,1010.73
2017-09-03T22:21:44.101Z,1010.73
2017-09-03T22:23:45.627Z,1010.73
2017-09-03T22:25:47.607Z,1010.70
2017-09-03T22:27:49.093Z,1010.69
2017-09-03T22:29:50.602Z,1010.66
2017-09-03T22:32:34.183Z,1010.64
2017-09-03T22:34:35.608Z,1010.57
2017-09-03T22:36:37.098Z,1010.57
2017-09-03T22:38:38.756Z,1010.53
2017-09-03T22:40:40.249Z,1010.55
2017-09-03T22:42:41.762Z,1010.56
2017-09-03T22:44:43.351Z,1010.52
2017-09-03T22:46:45.049Z,1010.53
2017-09-03T22:48:46.551Z,1010.53
2017-09-03T22:50:48.031Z,1010.47
2017-09-03T22:52:49.971Z,1010.44
2017-09-03T22:54:51.940Z,1010.46
2017-09-03T22:56:53.404Z,1010.43
2017-09-03T22:58:55.193Z,1010.40
2017-09-03T23:00:56.699Z,1010.42
2017-09-03T23:02:58.186Z,1010.42
2017-09-03T23:04:59.695Z,1010.37
2017-09-03T23:07:01.220Z,1010.33
2017-09-03T23:09:02.695Z,1010.36
2017-09-03T23:11:04.273Z,1010.34
2017-09-03T23:13:05.860Z,1010.36
2017-09-03T23:15:07.377Z,1010.36
2017-09-03T23:17:08.829Z,1010.36
2017-09-03T23:19:10.291Z,1010.34
2017-09-03T23:21:11.778Z,1010.37
2017-09-03T23:23:13.369Z,1010.35
2017-09-03T23:25:15.050Z,1010.30
2017-09-03T23:27:16.566Z,1010.32
2017-09-03T23:29:18.097Z,1010.29
2017-09-03T23:31:19.645Z,1010.31
2017-09-03T23:33:21.138Z,1010.32
2017-09-03T23:35:22.617Z,1010.30
2017-09-03T23:37:24.149Z,1010.29
2017-09-03T23:39:25.609Z,1010.28
2017-09-03T23:41:27.100Z,1010.27
2017-09-03T23:43:28.585Z,1010.31
2017-09-03T23:45:30.103Z,1010.30
2017-09-03T23:47:31.659Z,1010.29
2017-09-03T23:49:33.235Z,1010.31
2017-09-03T23:51:34.868Z,1010.29
2017-09-03T23:53:36.356Z,1010.31
2017-09-03T23:55:37.893Z,1010.25
2017-09-03T23:57:39.679Z,1010.20
